sensor_id;sensor_type;location;lat;lon;timestamp;P1;durP1;ratioP1;P2;durP2;ratioP2
32198;SDS011;19221;42.656;21.156;2023-05-14T00:00:17;17.42;;;11.10;;
32198;SDS011;19221;42.656;21.156;2023-05-14T00:02:43;15.63;;;10.68;;
32198;SDS011;19221;42.656;21.156;2023-05-14T00:05:09;10.85;;;8.25;;
32198;SDS011;19221;42.656;21.156;2023-05-14T00:07:34;12.25;;;8.55;;
32198;SDS011;19221;42.656;21.156;2023-05-14T00:10:00;10.77;;;8.35;;
32198;SDS011;19221;42.656;21.156;2023-05-14T00:12:26;18.83;;;8.95;;
32198;SDS011;19221;42.656;21.156;2023-05-14T00:14:52;11.50;;;8.52;;
32198;SDS011;19221;42.656;21.156;2023-05-14T00:17:17;12.98;;;8.65;;
32198;SDS011;19221;42.656;21.156;2023-05-14T00:19:43;15.27;;;10.13;;
32198;SDS011;19221;42.656;21.156;2023-05-14T00:22:09;15.02;;;10.23;;
32198;SDS011;19221;42.656;21.156;2023-05-14T00:24:34;15.88;;;9.48;;
32198;SDS011;19221;42.656;21.156;2023-05-14T00:27:00;13.48;;;10.27;;
32198;SDS011;19221;42.656;21.156;2023-05-14T00:29:26;13.32;;;10.05;;
32198;SDS011;19221;42.656;21.156;2023-05-14T00:31:52;11.43;;;9.10;;
32198;SDS011;19221;42.656;21.156;2023-05-14T00:34:17;14.45;;;9.27;;
32198;SDS011;19221;42.656;21.156;2023-05-14T00:36:43;15.52;;;9.45;;
32198;SDS011;19221;42.656;21.156;2023-05-14T00:39:09;14.20;;;10.45;;
32198;SDS011;19221;42.656;21.156;2023-05-14T00:41:34;14.23;;;9.05;;
32198;SDS011;19221;42.656;21.156;2023-05-14T00:44:00;16.63;;;9.40;;
32198;SDS011;19221;42.656;21.156;2023-05-14T00:46:26;13.13;;;8.88;;
32198;SDS011;19221;42.656;21.156;2023-05-14T00:48:52;10.18;;;8.57;;
32198;SDS011;19221;42.656;21.156;2023-05-14T00:51:18;18.77;;;9.43;;
32198;SDS011;19221;42.656;21.156;2023-05-14T00:53:44;10.20;;;8.05;;
32198;SDS011;19221;42.656;21.156;2023-05-14T00:56:10;10.93;;;7.53;;
32198;SDS011;19221;42.656;21.156;2023-05-14T00:58:36;9.63;;;7.93;;
32198;SDS011;19221;42.656;21.156;2023-05-14T01:01:01;11.35;;;8.52;;
32198;SDS011;19221;42.656;21.156;2023-05-14T01:03:28;9.63;;;8.20;;
32198;SDS011;19221;42.656;21.156;2023-05-14T01:06:00;12.65;;;7.68;;
32198;SDS011;19221;42.656;21.156;2023-05-14T01:11:05;11.80;;;8.40;;
32198;SDS011;19221;42.656;21.156;2023-05-14T01:13:33;10.27;;;8.45;;
32198;SDS011;19221;42.656;21.156;2023-05-14T01:16:01;11.05;;;8.75;;
32198;SDS011;19221;42.656;21.156;2023-05-14T01:18:28;10.10;;;8.85;;
32198;SDS011;19221;42.656;21.156;2023-05-14T01:20:55;11.90;;;9.10;;
32198;SDS011;19221;42.656;21.156;2023-05-14T01:23:21;12.60;;;8.85;;
32198;SDS011;19221;42.656;21.156;2023-05-14T01:25:47;11.52;;;9.30;;
32198;SDS011;19221;42.656;21.156;2023-05-14T01:28:17;11.45;;;8.20;;
32198;SDS011;19221;42.656;21.156;2023-05-14T01:33:09;11.68;;;8.65;;
32198;SDS011;19221;42.656;21.156;2023-05-14T01:35:35;10.88;;;8.55;;
32198;SDS011;19221;42.656;21.156;2023-05-14T01:38:02;11.75;;;7.82;;
32198;SDS011;19221;42.656;21.156;2023-05-14T01:40:29;10.43;;;8.43;;
32198;SDS011;19221;42.656;21.156;2023-05-14T01:42:56;11.23;;;8.98;;
32198;SDS011;19221;42.656;21.156;2023-05-14T01:45:24;9.07;;;7.97;;
32198;SDS011;19221;42.656;21.156;2023-05-14T01:47:50;11.23;;;7.30;;
32198;SDS011;19221;42.656;21.156;2023-05-14T01:50:17;9.77;;;8.18;;
32198;SDS011;19221;42.656;21.156;2023-05-14T01:52:42;9.50;;;7.35;;
32198;SDS011;19221;42.656;21.156;2023-05-14T01:55:08;12.75;;;7.35;;
32198;SDS011;19221;42.656;21.156;2023-05-14T01:57:35;10.07;;;8.00;;
32198;SDS011;19221;42.656;21.156;2023-05-14T02:00:01;10.80;;;8.13;;
32198;SDS011;19221;42.656;21.156;2023-05-14T02:02:28;9.55;;;7.50;;
32198;SDS011;19221;42.656;21.156;2023-05-14T02:04:54;11.40;;;8.73;;
32198;SDS011;19221;42.656;21.156;2023-05-14T02:07:19;10.10;;;8.07;;
32198;SDS011;19221;42.656;21.156;2023-05-14T02:09:45;9.05;;;7.38;;
32198;SDS011;19221;42.656;21.156;2023-05-14T02:12:11;10.63;;;7.45;;
32198;SDS011;19221;42.656;21.156;2023-05-14T02:14:38;11.20;;;7.88;;
32198;SDS011;19221;42.656;21.156;2023-05-14T02:17:04;14.55;;;8.00;;
32198;SDS011;19221;42.656;21.156;2023-05-14T02:19:30;13.48;;;7.75;;
32198;SDS011;19221;42.656;21.156;2023-05-14T02:21:57;11.90;;;8.13;;
32198;SDS011;19221;42.656;21.156;2023-05-14T02:24:22;10.23;;;8.25;;
32198;SDS011;19221;42.656;21.156;2023-05-14T02:26:48;12.63;;;8.35;;
32198;SDS011;19221;42.656;21.156;2023-05-14T02:29:14;10.88;;;8.10;;
32198;SDS011;19221;42.656;21.156;2023-05-14T02:31:39;11.63;;;8.80;;
32198;SDS011;19221;42.656;21.156;2023-05-14T02:34:05;12.18;;;8.85;;
32198;SDS011;19221;42.656;21.156;2023-05-14T02:36:31;14.50;;;8.32;;
32198;SDS011;19221;42.656;21.156;2023-05-14T02:38:57;10.15;;;7.15;;
32198;SDS011;19221;42.656;21.156;2023-05-14T02:41:23;11.27;;;7.70;;
32198;SDS011;19221;42.656;21.156;2023-05-14T02:43:49;13.50;;;7.32;;
32198;SDS011;19221;42.656;21.156;2023-05-14T02:46:14;7.53;;;6.80;;
32198;SDS011;19221;42.656;21.156;2023-05-14T02:48:40;9.05;;;7.45;;
32198;SDS011;19221;42.656;21.156;2023-05-14T02:51:06;7.55;;;6.65;;
32198;SDS011;19221;42.656;21.156;2023-05-14T02:53:32;8.50;;;7.40;;
32198;SDS011;19221;42.656;21.156;2023-05-14T02:55:57;7.65;;;6.57;;
32198;SDS011;19221;42.656;21.156;2023-05-14T02:58:23;8.60;;;7.03;;
32198;SDS011;19221;42.656;21.156;2023-05-14T03:00:49;9.90;;;7.22;;
32198;SDS011;19221;42.656;21.156;2023-05-14T03:03:17;9.57;;;7.53;;
32198;SDS011;19221;42.656;21.156;2023-05-14T03:05:42;9.07;;;7.35;;
32198;SDS011;19221;42.656;21.156;2023-05-14T03:08:08;10.32;;;7.13;;
32198;SDS011;19221;42.656;21.156;2023-05-14T03:10:34;10.13;;;7.22;;
32198;SDS011;19221;42.656;21.156;2023-05-14T03:13:00;11.70;;;7.28;;
32198;SDS011;19221;42.656;21.156;2023-05-14T03:15:25;12.27;;;7.00;;
32198;SDS011;19221;42.656;21.156;2023-05-14T03:17:51;7.88;;;6.10;;
32198;SDS011;19221;42.656;21.156;2023-05-14T03:20:17;7.32;;;6.18;;
32198;SDS011;19221;42.656;21.156;2023-05-14T03:22:42;8.45;;;7.15;;
32198;SDS011;19221;42.656;21.156;2023-05-14T03:25:08;8.43;;;5.93;;
32198;SDS011;19221;42.656;21.156;2023-05-14T03:27:34;10.13;;;5.47;;
32198;SDS011;19221;42.656;21.156;2023-05-14T03:29:59;7.30;;;5.80;;
32198;SDS011;19221;42.656;21.156;2023-05-14T03:32:25;8.65;;;5.28;;
32198;SDS011;19221;42.656;21.156;2023-05-14T03:34:51;6.93;;;5.80;;
32198;SDS011;19221;42.656;21.156;2023-05-14T03:37:16;8.57;;;5.43;;
32198;SDS011;19221;42.656;21.156;2023-05-14T03:39:42;3.70;;;3.13;;
32198;SDS011;19221;42.656;21.156;2023-05-14T03:42:08;4.35;;;3.63;;
32198;SDS011;19221;42.656;21.156;2023-05-14T03:44:33;4.47;;;3.60;;
32198;SDS011;19221;42.656;21.156;2023-05-14T03:46:59;3.20;;;2.75;;
32198;SDS011;19221;42.656;21.156;2023-05-14T03:49:25;7.60;;;3.03;;
32198;SDS011;19221;42.656;21.156;2023-05-14T03:51:50;4.60;;;2.70;;
32198;SDS011;19221;42.656;21.156;2023-05-14T03:54:16;3.88;;;2.78;;
32198;SDS011;19221;42.656;21.156;2023-05-14T03:56:41;3.53;;;3.00;;
32198;SDS011;19221;42.656;21.156;2023-05-14T03:59:07;3.53;;;2.80;;
32198;SDS011;19221;42.656;21.156;2023-05-14T04:01:33;3.42;;;2.50;;
32198;SDS011;19221;42.656;21.156;2023-05-14T04:03:58;3.65;;;2.53;;
32198;SDS011;19221;42.656;21.156;2023-05-14T04:06:24;3.58;;;2.38;;
32198;SDS011;19221;42.656;21.156;2023-05-14T04:08:50;1.88;;;1.77;;
32198;SDS011;19221;42.656;21.156;2023-05-14T04:11:15;3.72;;;2.20;;
32198;SDS011;19221;42.656;21.156;2023-05-14T04:13:41;3.60;;;2.53;;
32198;SDS011;19221;42.656;21.156;2023-05-14T04:16:07;1.90;;;1.70;;
32198;SDS011;19221;42.656;21.156;2023-05-14T04:18:32;2.67;;;2.00;;
32198;SDS011;19221;42.656;21.156;2023-05-14T04:21:01;2.35;;;2.15;;
32198;SDS011;19221;42.656;21.156;2023-05-14T04:23:27;2.80;;;2.20;;
32198;SDS011;19221;42.656;21.156;2023-05-14T04:25:52;2.25;;;2.00;;
32198;SDS011;19221;42.656;21.156;2023-05-14T04:28:20;2.75;;;2.22;;
32198;SDS011;19221;42.656;21.156;2023-05-14T04:30:46;3.17;;;2.10;;
32198;SDS011;19221;42.656;21.156;2023-05-14T04:33:12;2.40;;;2.20;;
32198;SDS011;19221;42.656;21.156;2023-05-14T04:35:39;2.88;;;2.28;;
32198;SDS011;19221;42.656;21.156;2023-05-14T04:38:05;5.97;;;2.33;;
32198;SDS011;19221;42.656;21.156;2023-05-14T04:40:30;2.10;;;1.90;;
32198;SDS011;19221;42.656;21.156;2023-05-14T04:42:56;4.28;;;2.70;;
32198;SDS011;19221;42.656;21.156;2023-05-14T04:45:23;3.17;;;2.40;;
32198;SDS011;19221;42.656;21.156;2023-05-14T04:47:48;3.45;;;2.50;;
32198;SDS011;19221;42.656;21.156;2023-05-14T04:50:14;2.72;;;2.03;;
32198;SDS011;19221;42.656;21.156;2023-05-14T04:52:40;2.72;;;1.75;;
32198;SDS011;19221;42.656;21.156;2023-05-14T04:55:06;3.38;;;2.50;;
32198;SDS011;19221;42.656;21.156;2023-05-14T04:57:32;3.05;;;2.30;;
32198;SDS011;19221;42.656;21.156;2023-05-14T04:59:58;3.33;;;2.00;;
32198;SDS011;19221;42.656;21.156;2023-05-14T05:02:24;3.97;;;2.10;;
32198;SDS011;19221;42.656;21.156;2023-05-14T05:04:49;2.88;;;1.98;;
32198;SDS011;19221;42.656;21.156;2023-05-14T05:07:15;6.22;;;2.08;;
32198;SDS011;19221;42.656;21.156;2023-05-14T05:09:41;4.32;;;2.60;;
32198;SDS011;19221;42.656;21.156;2023-05-14T05:12:08;2.00;;;1.70;;
32198;SDS011;19221;42.656;21.156;2023-05-14T05:14:34;3.03;;;2.00;;
32198;SDS011;19221;42.656;21.156;2023-05-14T05:16:59;3.15;;;1.80;;
32198;SDS011;19221;42.656;21.156;2023-05-14T05:19:25;2.25;;;1.70;;
32198;SDS011;19221;42.656;21.156;2023-05-14T05:21:51;3.38;;;2.20;;
32198;SDS011;19221;42.656;21.156;2023-05-14T05:24:16;2.75;;;2.10;;
32198;SDS011;19221;42.656;21.156;2023-05-14T05:26:42;3.90;;;1.88;;
32198;SDS011;19221;42.656;21.156;2023-05-14T05:29:08;2.85;;;1.80;;
32198;SDS011;19221;42.656;21.156;2023-05-14T05:31:33;2.40;;;2.00;;
32198;SDS011;19221;42.656;21.156;2023-05-14T05:33:59;3.45;;;2.20;;
32198;SDS011;19221;42.656;21.156;2023-05-14T05:36:25;6.07;;;2.67;;
32198;SDS011;19221;42.656;21.156;2023-05-14T05:38:51;5.00;;;2.22;;
32198;SDS011;19221;42.656;21.156;2023-05-14T05:41:16;4.63;;;2.33;;
32198;SDS011;19221;42.656;21.156;2023-05-14T05:43:42;4.68;;;2.42;;
32198;SDS011;19221;42.656;21.156;2023-05-14T05:46:08;2.88;;;2.28;;
32198;SDS011;19221;42.656;21.156;2023-05-14T05:48:34;3.85;;;2.10;;
32198;SDS011;19221;42.656;21.156;2023-05-14T05:51:00;4.07;;;2.40;;
32198;SDS011;19221;42.656;21.156;2023-05-14T05:53:26;4.88;;;2.45;;
32198;SDS011;19221;42.656;21.156;2023-05-14T05:55:52;4.30;;;2.75;;
32198;SDS011;19221;42.656;21.156;2023-05-14T05:58:18;3.65;;;2.13;;
32198;SDS011;19221;42.656;21.156;2023-05-14T06:00:44;5.63;;;3.10;;
32198;SDS011;19221;42.656;21.156;2023-05-14T06:03:10;5.80;;;2.47;;
32198;SDS011;19221;42.656;21.156;2023-05-14T06:05:36;7.47;;;3.22;;
32198;SDS011;19221;42.656;21.156;2023-05-14T06:08:02;4.35;;;2.58;;
32198;SDS011;19221;42.656;21.156;2023-05-14T06:10:27;7.28;;;2.60;;
32198;SDS011;19221;42.656;21.156;2023-05-14T06:12:53;4.30;;;2.60;;
32198;SDS011;19221;42.656;21.156;2023-05-14T06:15:19;7.97;;;3.03;;
32198;SDS011;19221;42.656;21.156;2023-05-14T06:17:44;10.70;;;2.95;;
32198;SDS011;19221;42.656;21.156;2023-05-14T06:20:10;8.52;;;2.90;;
32198;SDS011;19221;42.656;21.156;2023-05-14T06:22:36;4.65;;;2.58;;
32198;SDS011;19221;42.656;21.156;2023-05-14T06:25:02;11.77;;;2.80;;
32198;SDS011;19221;42.656;21.156;2023-05-14T06:27:28;7.05;;;2.97;;
32198;SDS011;19221;42.656;21.156;2023-05-14T06:29:54;6.00;;;3.22;;
32198;SDS011;19221;42.656;21.156;2023-05-14T06:32:20;4.32;;;2.38;;
32198;SDS011;19221;42.656;21.156;2023-05-14T06:34:45;3.88;;;2.40;;
32198;SDS011;19221;42.656;21.156;2023-05-14T06:37:11;3.28;;;2.30;;
32198;SDS011;19221;42.656;21.156;2023-05-14T06:39:37;2.80;;;2.33;;
32198;SDS011;19221;42.656;21.156;2023-05-14T06:42:03;3.97;;;2.78;;
32198;SDS011;19221;42.656;21.156;2023-05-14T06:44:29;4.00;;;2.45;;
32198;SDS011;19221;42.656;21.156;2023-05-14T06:46:54;3.90;;;2.67;;
32198;SDS011;19221;42.656;21.156;2023-05-14T06:49:21;5.57;;;2.70;;
32198;SDS011;19221;42.656;21.156;2023-05-14T06:51:47;5.03;;;3.30;;
32198;SDS011;19221;42.656;21.156;2023-05-14T06:54:13;3.78;;;3.08;;
32198;SDS011;19221;42.656;21.156;2023-05-14T06:56:38;3.83;;;3.35;;
32198;SDS011;19221;42.656;21.156;2023-05-14T06:59:04;3.85;;;2.50;;
32198;SDS011;19221;42.656;21.156;2023-05-14T07:01:30;3.85;;;3.10;;
32198;SDS011;19221;42.656;21.156;2023-05-14T07:03:55;5.05;;;3.55;;
32198;SDS011;19221;42.656;21.156;2023-05-14T07:06:21;5.05;;;3.75;;
32198;SDS011;19221;42.656;21.156;2023-05-14T07:08:47;6.80;;;3.75;;
32198;SDS011;19221;42.656;21.156;2023-05-14T07:11:13;7.57;;;3.85;;
32198;SDS011;19221;42.656;21.156;2023-05-14T07:13:39;4.70;;;3.30;;
32198;SDS011;19221;42.656;21.156;2023-05-14T07:16:05;5.15;;;3.35;;
32198;SDS011;19221;42.656;21.156;2023-05-14T07:18:31;12.77;;;4.63;;
32198;SDS011;19221;42.656;21.156;2023-05-14T07:20:57;4.78;;;3.42;;
32198;SDS011;19221;42.656;21.156;2023-05-14T07:23:22;4.70;;;4.05;;
32198;SDS011;19221;42.656;21.156;2023-05-14T07:25:48;4.15;;;3.65;;
32198;SDS011;19221;42.656;21.156;2023-05-14T07:28:13;6.35;;;3.90;;
32198;SDS011;19221;42.656;21.156;2023-05-14T07:30:39;6.28;;;4.55;;
32198;SDS011;19221;42.656;21.156;2023-05-14T07:33:05;8.25;;;4.55;;
32198;SDS011;19221;42.656;21.156;2023-05-14T07:35:30;6.93;;;5.03;;
32198;SDS011;19221;42.656;21.156;2023-05-14T07:37:56;6.60;;;4.18;;
32198;SDS011;19221;42.656;21.156;2023-05-14T07:40:22;7.43;;;5.13;;
32198;SDS011;19221;42.656;21.156;2023-05-14T07:42:49;10.57;;;4.90;;
32198;SDS011;19221;42.656;21.156;2023-05-14T07:45:15;7.15;;;4.70;;
32198;SDS011;19221;42.656;21.156;2023-05-14T07:47:40;6.38;;;5.13;;
32198;SDS011;19221;42.656;21.156;2023-05-14T07:50:06;7.00;;;5.38;;
32198;SDS011;19221;42.656;21.156;2023-05-14T07:52:32;10.05;;;5.60;;
32198;SDS011;19221;42.656;21.156;2023-05-14T07:54:58;9.80;;;5.00;;
32198;SDS011;19221;42.656;21.156;2023-05-14T07:57:25;7.47;;;5.03;;
32198;SDS011;19221;42.656;21.156;2023-05-14T07:59:51;6.47;;;4.88;;
32198;SDS011;19221;42.656;21.156;2023-05-14T08:02:16;8.10;;;5.20;;
32198;SDS011;19221;42.656;21.156;2023-05-14T08:04:42;5.95;;;4.60;;
32198;SDS011;19221;42.656;21.156;2023-05-14T08:07:08;6.18;;;4.93;;
32198;SDS011;19221;42.656;21.156;2023-05-14T08:09:34;8.52;;;5.10;;
32198;SDS011;19221;42.656;21.156;2023-05-14T08:11:59;5.18;;;4.68;;
32198;SDS011;19221;42.656;21.156;2023-05-14T08:14:25;6.20;;;5.10;;
32198;SDS011;19221;42.656;21.156;2023-05-14T08:16:51;5.00;;;4.50;;
32198;SDS011;19221;42.656;21.156;2023-05-14T08:19:17;5.75;;;4.25;;
32198;SDS011;19221;42.656;21.156;2023-05-14T08:21:43;5.43;;;4.25;;
32198;SDS011;19221;42.656;21.156;2023-05-14T08:24:08;6.05;;;3.70;;
32198;SDS011;19221;42.656;21.156;2023-05-14T08:26:34;4.55;;;4.13;;
32198;SDS011;19221;42.656;21.156;2023-05-14T08:29:00;5.65;;;4.30;;
32198;SDS011;19221;42.656;21.156;2023-05-14T08:31:25;6.95;;;4.32;;
32198;SDS011;19221;42.656;21.156;2023-05-14T08:33:51;5.60;;;4.22;;
32198;SDS011;19221;42.656;21.156;2023-05-14T08:36:17;6.32;;;4.03;;
32198;SDS011;19221;42.656;21.156;2023-05-14T08:38:42;4.65;;;3.40;;
32198;SDS011;19221;42.656;21.156;2023-05-14T08:41:09;3.88;;;3.35;;
32198;SDS011;19221;42.656;21.156;2023-05-14T08:46:23;6.20;;;4.20;;
32198;SDS011;19221;42.656;21.156;2023-05-14T08:48:56;14.73;;;4.97;;
32198;SDS011;19221;42.656;21.156;2023-05-14T08:51:25;5.95;;;4.65;;
32198;SDS011;19221;42.656;21.156;2023-05-14T08:53:51;4.93;;;4.28;;
32198;SDS011;19221;42.656;21.156;2023-05-14T08:56:16;7.57;;;4.45;;
32198;SDS011;19221;42.656;21.156;2023-05-14T08:58:42;6.28;;;5.15;;
32198;SDS011;19221;42.656;21.156;2023-05-14T09:01:08;5.75;;;4.28;;
32198;SDS011;19221;42.656;21.156;2023-05-14T09:03:34;6.13;;;4.75;;
32198;SDS011;19221;42.656;21.156;2023-05-14T09:06:00;7.72;;;5.88;;
32198;SDS011;19221;42.656;21.156;2023-05-14T09:08:26;6.93;;;5.43;;
32198;SDS011;19221;42.656;21.156;2023-05-14T09:10:52;6.80;;;5.43;;
32198;SDS011;19221;42.656;21.156;2023-05-14T09:13:17;8.20;;;6.03;;
32198;SDS011;19221;42.656;21.156;2023-05-14T09:15:43;7.10;;;5.35;;
32198;SDS011;19221;42.656;21.156;2023-05-14T09:18:10;10.65;;;6.18;;
32198;SDS011;19221;42.656;21.156;2023-05-14T09:20:36;8.68;;;6.80;;
32198;SDS011;19221;42.656;21.156;2023-05-14T09:23:02;8.05;;;6.05;;
32198;SDS011;19221;42.656;21.156;2023-05-14T09:25:31;8.52;;;6.32;;
32198;SDS011;19221;42.656;21.156;2023-05-14T09:27:57;7.05;;;6.35;;
32198;SDS011;19221;42.656;21.156;2023-05-14T09:30:25;7.63;;;6.15;;
32198;SDS011;19221;42.656;21.156;2023-05-14T09:32:52;10.25;;;6.60;;
32198;SDS011;19221;42.656;21.156;2023-05-14T09:35:22;12.50;;;6.70;;
32198;SDS011;19221;42.656;21.156;2023-05-14T09:37:52;11.80;;;7.90;;
32198;SDS011;19221;42.656;21.156;2023-05-14T09:40:18;25.23;;;13.02;;
32198;SDS011;19221;42.656;21.156;2023-05-14T09:42:44;12.57;;;7.95;;
32198;SDS011;19221;42.656;21.156;2023-05-14T09:45:10;8.13;;;6.13;;
32198;SDS011;19221;42.656;21.156;2023-05-14T09:47:36;9.43;;;6.07;;
32198;SDS011;19221;42.656;21.156;2023-05-14T09:50:02;9.75;;;6.47;;
32198;SDS011;19221;42.656;21.156;2023-05-14T09:52:28;6.93;;;5.88;;
32198;SDS011;19221;42.656;21.156;2023-05-14T09:54:54;12.43;;;6.68;;
32198;SDS011;19221;42.656;21.156;2023-05-14T09:57:20;10.02;;;6.55;;
32198;SDS011;19221;42.656;21.156;2023-05-14T09:59:45;16.67;;;6.78;;
32198;SDS011;19221;42.656;21.156;2023-05-14T10:02:20;9.48;;;5.80;;
32198;SDS011;19221;42.656;21.156;2023-05-14T10:04:48;10.27;;;7.32;;
32198;SDS011;19221;42.656;21.156;2023-05-14T10:07:15;16.48;;;6.78;;
32198;SDS011;19221;42.656;21.156;2023-05-14T10:09:41;10.32;;;6.82;;
32198;SDS011;19221;42.656;21.156;2023-05-14T10:12:08;16.90;;;7.35;;
32198;SDS011;19221;42.656;21.156;2023-05-14T10:14:35;13.93;;;7.70;;
32198;SDS011;19221;42.656;21.156;2023-05-14T10:17:03;15.55;;;7.32;;
32198;SDS011;19221;42.656;21.156;2023-05-14T10:19:31;13.10;;;7.95;;
32198;SDS011;19221;42.656;21.156;2023-05-14T10:22:02;15.20;;;8.82;;
32198;SDS011;19221;42.656;21.156;2023-05-14T10:24:29;10.25;;;8.63;;
32198;SDS011;19221;42.656;21.156;2023-05-14T10:26:55;14.73;;;8.82;;
32198;SDS011;19221;42.656;21.156;2023-05-14T10:29:35;12.98;;;8.05;;
32198;SDS011;19221;42.656;21.156;2023-05-14T10:32:05;11.13;;;7.50;;
32198;SDS011;19221;42.656;21.156;2023-05-14T10:37:00;14.50;;;8.55;;
32198;SDS011;19221;42.656;21.156;2023-05-14T10:42:05;10.43;;;7.55;;
32198;SDS011;19221;42.656;21.156;2023-05-14T10:44:31;10.90;;;7.60;;
32198;SDS011;19221;42.656;21.156;2023-05-14T10:46:59;14.02;;;7.68;;
32198;SDS011;19221;42.656;21.156;2023-05-14T10:49:25;16.55;;;7.78;;
32198;SDS011;19221;42.656;21.156;2023-05-14T10:51:52;13.60;;;8.30;;
32198;SDS011;19221;42.656;21.156;2023-05-14T10:54:18;25.52;;;8.40;;
32198;SDS011;19221;42.656;21.156;2023-05-14T10:56:46;11.63;;;7.78;;
32198;SDS011;19221;42.656;21.156;2023-05-14T10:59:12;9.93;;;7.82;;
32198;SDS011;19221;42.656;21.156;2023-05-14T11:01:40;12.90;;;8.13;;
32198;SDS011;19221;42.656;21.156;2023-05-14T11:04:06;19.98;;;9.27;;
32198;SDS011;19221;42.656;21.156;2023-05-14T11:06:33;14.90;;;8.73;;
32198;SDS011;19221;42.656;21.156;2023-05-14T11:09:00;15.35;;;8.05;;
32198;SDS011;19221;42.656;21.156;2023-05-14T11:11:26;21.17;;;9.80;;
32198;SDS011;19221;42.656;21.156;2023-05-14T11:13:52;13.25;;;8.70;;
32198;SDS011;19221;42.656;21.156;2023-05-14T11:16:19;18.70;;;10.70;;
32198;SDS011;19221;42.656;21.156;2023-05-14T11:18:46;14.30;;;9.07;;
32198;SDS011;19221;42.656;21.156;2023-05-14T11:21:12;18.98;;;10.18;;
32198;SDS011;19221;42.656;21.156;2023-05-14T11:23:38;18.98;;;10.55;;
32198;SDS011;19221;42.656;21.156;2023-05-14T11:26:03;20.23;;;10.70;;
32198;SDS011;19221;42.656;21.156;2023-05-14T11:28:29;18.00;;;9.32;;
32198;SDS011;19221;42.656;21.156;2023-05-14T11:30:55;22.27;;;9.82;;
32198;SDS011;19221;42.656;21.156;2023-05-14T11:33:20;24.90;;;11.60;;
32198;SDS011;19221;42.656;21.156;2023-05-14T11:35:46;22.13;;;11.30;;
32198;SDS011;19221;42.656;21.156;2023-05-14T11:38:19;15.00;;;10.65;;
32198;SDS011;19221;42.656;21.156;2023-05-14T11:40:53;19.48;;;10.88;;
32198;SDS011;19221;42.656;21.156;2023-05-14T11:43:19;24.83;;;11.43;;
32198;SDS011;19221;42.656;21.156;2023-05-14T11:45:48;16.10;;;10.82;;
32198;SDS011;19221;42.656;21.156;2023-05-14T11:48:14;23.20;;;12.13;;
32198;SDS011;19221;42.656;21.156;2023-05-14T11:50:43;19.15;;;12.13;;
32198;SDS011;19221;42.656;21.156;2023-05-14T11:53:09;24.65;;;12.77;;
32198;SDS011;19221;42.656;21.156;2023-05-14T11:55:34;23.63;;;12.82;;
32198;SDS011;19221;42.656;21.156;2023-05-14T11:58:00;21.23;;;13.15;;
32198;SDS011;19221;42.656;21.156;2023-05-14T12:00:26;17.30;;;13.20;;
32198;SDS011;19221;42.656;21.156;2023-05-14T12:02:52;21.33;;;13.77;;
32198;SDS011;19221;42.656;21.156;2023-05-14T12:05:19;21.77;;;14.10;;
32198;SDS011;19221;42.656;21.156;2023-05-14T12:07:45;22.70;;;12.93;;
32198;SDS011;19221;42.656;21.156;2023-05-14T12:10:11;21.00;;;13.73;;
32198;SDS011;19221;42.656;21.156;2023-05-14T12:12:37;25.58;;;14.13;;
32198;SDS011;19221;42.656;21.156;2023-05-14T12:15:12;24.90;;;14.95;;
32198;SDS011;19221;42.656;21.156;2023-05-14T12:17:38;21.73;;;13.68;;
32198;SDS011;19221;42.656;21.156;2023-05-14T12:20:04;21.15;;;13.18;;
32198;SDS011;19221;42.656;21.156;2023-05-14T12:22:32;21.10;;;14.07;;
32198;SDS011;19221;42.656;21.156;2023-05-14T12:24:58;21.83;;;14.45;;
32198;SDS011;19221;42.656;21.156;2023-05-14T12:27:25;21.02;;;13.82;;
32198;SDS011;19221;42.656;21.156;2023-05-14T12:30:00;19.15;;;14.45;;
32198;SDS011;19221;42.656;21.156;2023-05-14T12:32:30;21.80;;;14.98;;
32198;SDS011;19221;42.656;21.156;2023-05-14T12:34:56;24.05;;;14.00;;
32198;SDS011;19221;42.656;21.156;2023-05-14T12:37:21;20.13;;;14.68;;
32198;SDS011;19221;42.656;21.156;2023-05-14T12:39:47;27.17;;;15.25;;
32198;SDS011;19221;42.656;21.156;2023-05-14T12:42:13;25.73;;;14.73;;
32198;SDS011;19221;42.656;21.156;2023-05-14T12:44:39;21.52;;;14.88;;
32198;SDS011;19221;42.656;21.156;2023-05-14T12:47:05;28.90;;;14.75;;
32198;SDS011;19221;42.656;21.156;2023-05-14T12:49:31;27.35;;;13.10;;
32198;SDS011;19221;42.656;21.156;2023-05-14T12:51:56;17.27;;;13.30;;
32198;SDS011;19221;42.656;21.156;2023-05-14T12:54:24;20.63;;;13.98;;
32198;SDS011;19221;42.656;21.156;2023-05-14T12:56:49;30.73;;;18.17;;
32198;SDS011;19221;42.656;21.156;2023-05-14T12:59:15;31.45;;;17.65;;
32198;SDS011;19221;42.656;21.156;2023-05-14T13:01:41;90.57;;;44.38;;
32198;SDS011;19221;42.656;21.156;2023-05-14T13:04:07;45.25;;;26.30;;
32198;SDS011;19221;42.656;21.156;2023-05-14T13:06:33;20.90;;;13.40;;
32198;SDS011;19221;42.656;21.156;2023-05-14T13:08:59;19.30;;;12.20;;
32198;SDS011;19221;42.656;21.156;2023-05-14T13:11:26;18.35;;;12.10;;
32198;SDS011;19221;42.656;21.156;2023-05-14T13:13:54;21.85;;;12.95;;
32198;SDS011;19221;42.656;21.156;2023-05-14T13:16:20;21.65;;;13.90;;
32198;SDS011;19221;42.656;21.156;2023-05-14T13:18:45;19.25;;;11.27;;
32198;SDS011;19221;42.656;21.156;2023-05-14T13:21:11;22.67;;;11.90;;
32198;SDS011;19221;42.656;21.156;2023-05-14T13:23:37;22.73;;;10.82;;
32198;SDS011;19221;42.656;21.156;2023-05-14T13:26:03;18.70;;;10.77;;
32198;SDS011;19221;42.656;21.156;2023-05-14T13:28:28;15.48;;;9.80;;
32198;SDS011;19221;42.656;21.156;2023-05-14T13:31:04;21.60;;;10.50;;
32198;SDS011;19221;42.656;21.156;2023-05-14T13:33:31;21.17;;;9.80;;
32198;SDS011;19221;42.656;21.156;2023-05-14T13:35:57;21.70;;;11.75;;
32198;SDS011;19221;42.656;21.156;2023-05-14T13:38:22;27.90;;;11.75;;
32198;SDS011;19221;42.656;21.156;2023-05-14T13:40:48;22.30;;;10.68;;
32198;SDS011;19221;42.656;21.156;2023-05-14T13:43:14;22.85;;;11.63;;
32198;SDS011;19221;42.656;21.156;2023-05-14T13:45:41;23.23;;;11.48;;
32198;SDS011;19221;42.656;21.156;2023-05-14T13:48:06;23.70;;;10.82;;
32198;SDS011;19221;42.656;21.156;2023-05-14T13:50:32;25.25;;;11.05;;
32198;SDS011;19221;42.656;21.156;2023-05-14T13:52:58;20.63;;;11.45;;
32198;SDS011;19221;42.656;21.156;2023-05-14T13:55:23;20.52;;;11.15;;
32198;SDS011;19221;42.656;21.156;2023-05-14T13:57:49;19.10;;;11.07;;
32198;SDS011;19221;42.656;21.156;2023-05-14T14:00:15;21.10;;;10.35;;
32198;SDS011;19221;42.656;21.156;2023-05-14T14:02:41;19.48;;;10.43;;
32198;SDS011;19221;42.656;21.156;2023-05-14T14:05:07;19.40;;;10.88;;
32198;SDS011;19221;42.656;21.156;2023-05-14T14:07:32;21.48;;;11.48;;
32198;SDS011;19221;42.656;21.156;2023-05-14T14:09:58;23.75;;;11.73;;
32198;SDS011;19221;42.656;21.156;2023-05-14T14:12:26;18.05;;;10.43;;
32198;SDS011;19221;42.656;21.156;2023-05-14T14:14:51;18.75;;;10.48;;
32198;SDS011;19221;42.656;21.156;2023-05-14T14:17:17;21.30;;;11.85;;
32198;SDS011;19221;42.656;21.156;2023-05-14T14:19:43;15.88;;;10.88;;
32198;SDS011;19221;42.656;21.156;2023-05-14T14:22:09;18.25;;;11.75;;
32198;SDS011;19221;42.656;21.156;2023-05-14T14:24:36;26.45;;;11.88;;
32198;SDS011;19221;42.656;21.156;2023-05-14T14:27:02;27.73;;;12.63;;
32198;SDS011;19221;42.656;21.156;2023-05-14T14:29:28;20.73;;;11.45;;